createdAt,value
2017-08-12T00:01:13.147Z,86.10
2017-08-12T00:03:40.588Z,86.10
2017-08-12T00:06:08.052Z,86.10
2017-08-12T00:08:35.523Z,86.10
2017-08-12T00:11:02.993Z,86.10
2017-08-12T00:13:30.458Z,86.10
2017-08-12T00:15:57.920Z,86.10
2017-08-12T00:18:25.380Z,86.10
2017-08-12T00:20:52.844Z,86.10
2017-08-12T00:23:20.311Z,86.20
2017-08-12T00:25:47.773Z,86.20
2017-08-12T00:28:15.245Z,86.10
2017-08-12T00:30:42.712Z,86.10
2017-08-12T00:33:10.168Z,86.20
2017-08-12T00:35:37.628Z,86.20
2017-08-12T00:38:05.095Z,86.30
2017-08-12T00:40:32.559Z,86.30
2017-08-12T00:43:00.013Z,86.30
2017-08-12T00:45:27.477Z,86.20
2017-08-12T00:47:54.938Z,86.20
2017-08-12T00:50:22.409Z,86.10
2017-08-12T00:52:49.873Z,86.10
2017-08-12T00:55:17.326Z,86.20
2017-08-12T00:57:44.785Z,86.10
2017-08-12T01:00:12.238Z,86.10
2017-08-12T01:02:39.682Z,86.20
2017-08-12T01:05:08.130Z,86.30
2017-08-12T01:07:36.607Z,86.30
2017-08-12T01:10:04.059Z,86.30
2017-08-12T01:12:31.507Z,86.30
2017-08-12T01:15:02.448Z,86.40
2017-08-12T01:17:29.933Z,86.40
2017-08-12T01:19:57.680Z,86.40
2017-08-12T01:22:25.122Z,86.30
2017-08-12T01:24:55.875Z,86.30
2017-08-12T01:27:23.344Z,86.30
2017-08-12T01:29:50.817Z,86.20
2017-08-12T01:32:18.273Z,86.20
2017-08-12T01:34:45.734Z,86.20
2017-08-12T01:37:13.204Z,86.30
2017-08-12T01:39:40.663Z,86.20
2017-08-12T01:42:08.125Z,86.20
2017-08-12T01:44:35.582Z,86.10
2017-08-12T01:47:03.863Z,86.20
2017-08-12T01:49:31.300Z,86.20
2017-08-12T01:51:59.515Z,86.20
2017-08-12T01:54:26.981Z,86.10
2017-08-12T01:56:54.437Z,86.10
2017-08-12T01:59:21.905Z,86.10
2017-08-12T02:01:49.356Z,86.20
2017-08-12T02:04:16.820Z,86.10
2017-08-12T02:06:44.281Z,86.10
2017-08-12T02:09:11.738Z,86.10
2017-08-12T02:11:39.196Z,86.10
2017-08-12T02:14:06.645Z,86.10
2017-08-12T02:16:34.880Z,86.20
2017-08-12T02:19:02.333Z,86.20
2017-08-12T02:21:29.796Z,86.20
2017-08-12T02:23:57.245Z,86.30
2017-08-12T02:26:24.710Z,86.30
2017-08-12T02:28:52.157Z,86.30
2017-08-12T02:31:19.637Z,86.20
2017-08-12T02:33:47.093Z,86.20
2017-08-12T02:36:14.547Z,86.20
2017-08-12T02:38:42.022Z,86.10
2017-08-12T02:41:09.481Z,86.10
2017-08-12T02:43:36.941Z,86.20
2017-08-12T02:46:04.388Z,86.20
2017-08-12T02:48:31.852Z,86.00
2017-08-12T02:50:59.323Z,86.00
2017-08-12T02:53:26.793Z,86.00
2017-08-12T02:55:54.257Z,86.20
2017-08-12T02:58:21.718Z,86.20
2017-08-12T03:00:49.182Z,86.10
2017-08-12T03:03:16.662Z,85.80
2017-08-12T03:05:44.141Z,85.80
2017-08-12T03:08:11.609Z,86.00
2017-08-12T03:10:39.069Z,85.80
2017-08-12T03:13:06.525Z,85.70
2017-08-12T03:15:34.869Z,85.60
2017-08-12T03:18:02.317Z,85.60
2017-08-12T03:20:29.776Z,85.30
2017-08-12T03:22:57.224Z,85.20
2017-08-12T03:25:25.461Z,85.20
2017-08-12T03:27:52.916Z,85.20
2017-08-12T03:30:20.386Z,85.00
2017-08-12T03:32:47.848Z,84.90
2017-08-12T03:35:15.301Z,84.70
2017-08-12T03:37:42.765Z,84.70
2017-08-12T03:40:10.236Z,84.80
2017-08-12T03:42:37.692Z,84.50
2017-08-12T03:45:05.149Z,84.40
2017-08-12T03:47:32.612Z,84.60
2017-08-12T03:50:00.076Z,84.30
2017-08-12T03:52:27.540Z,84.50
2017-08-12T03:54:54.999Z,84.50
2017-08-12T03:57:22.464Z,84.50
2017-08-12T03:59:49.928Z,84.60
2017-08-12T04:02:17.386Z,84.50
2017-08-12T04:04:44.857Z,84.50
2017-08-12T04:07:12.321Z,84.30
2017-08-12T04:09:39.789Z,84.40
2017-08-12T04:12:07.249Z,84.40
2017-08-12T04:14:34.723Z,84.40
2017-08-12T04:17:02.192Z,84.50
2017-08-12T04:19:29.643Z,84.50
2017-08-12T04:21:57.105Z,84.50
2017-08-12T04:24:24.561Z,84.50
2017-08-12T04:26:52.028Z,84.50
2017-08-12T04:29:19.479Z,84.50
2017-08-12T04:31:46.940Z,84.50
2017-08-12T04:34:14.405Z,84.50
2017-08-12T04:36:41.872Z,84.50
2017-08-12T04:39:09.336Z,84.50
2017-08-12T04:41:36.816Z,84.50
2017-08-12T04:44:04.268Z,84.50
2017-08-12T04:46:31.727Z,84.40
2017-08-12T04:48:59.181Z,84.30
2017-08-12T04:51:26.654Z,84.20
2017-08-12T04:53:54.108Z,84.00
2017-08-12T04:56:21.557Z,84.20
2017-08-12T04:58:49.008Z,84.10
2017-08-12T05:01:17.221Z,84.20
2017-08-12T05:03:44.683Z,84.20
2017-08-12T05:06:12.142Z,84.30
2017-08-12T05:08:39.604Z,84.30
2017-08-12T05:11:07.061Z,84.10
2017-08-12T05:13:34.509Z,83.60
2017-08-12T05:16:01.965Z,83.60
2017-08-12T05:18:29.418Z,84.00
2017-08-12T05:20:57.637Z,83.90
2017-08-12T05:23:25.089Z,83.70
2017-08-12T05:25:52.558Z,83.60
2017-08-12T05:28:19.996Z,83.90
2017-08-12T05:30:47.452Z,84.00
2017-08-12T05:33:15.680Z,83.90
2017-08-12T05:35:43.135Z,83.70
2017-08-12T05:38:10.595Z,83.60
2017-08-12T05:40:38.044Z,83.70
2017-08-12T05:43:05.510Z,83.70
2017-08-12T05:45:32.952Z,83.50
2017-08-12T05:48:00.440Z,83.40
2017-08-12T05:50:27.898Z,83.30
2017-08-12T05:52:55.361Z,83.30
2017-08-12T05:55:22.816Z,83.50
2017-08-12T05:57:52.056Z,83.60
2017-08-12T06:00:19.513Z,83.40
2017-08-12T06:02:46.968Z,83.50
2017-08-12T06:05:14.419Z,83.50
2017-08-12T06:07:41.874Z,83.50
2017-08-12T06:10:09.320Z,83.50
2017-08-12T06:12:36.777Z,83.40
2017-08-12T06:15:04.227Z,83.10
2017-08-12T06:17:32.449Z,83.30
2017-08-12T06:19:59.900Z,83.20
2017-08-12T06:22:27.381Z,82.90
2017-08-12T06:24:54.852Z,83.00
2017-08-12T06:27:22.297Z,83.10
2017-08-12T06:29:49.758Z,83.80
2017-08-12T06:32:17.326Z,83.10
2017-08-12T06:34:44.829Z,83.10
2017-08-12T06:37:12.405Z,83.20
2017-08-12T06:39:40.661Z,82.80
2017-08-12T06:42:08.152Z,83.10
2017-08-12T06:44:36.450Z,82.90
2017-08-12T06:47:04.665Z,82.90
2017-08-12T06:49:32.121Z,83.60
2017-08-12T06:51:59.594Z,83.00
2017-08-12T06:54:30.207Z,82.90
2017-08-12T06:56:57.661Z,83.00
2017-08-12T06:59:25.105Z,83.10
2017-08-12T07:01:53.328Z,83.10
2017-08-12T07:04:20.790Z,83.00
2017-08-12T07:06:48.249Z,83.10
2017-08-12T07:09:15.711Z,83.10
2017-08-12T07:11:43.174Z,83.10
2017-08-12T07:14:10.629Z,83.20
2017-08-12T07:16:38.101Z,83.20
2017-08-12T07:19:05.581Z,83.20
2017-08-12T07:21:33.028Z,83.20
2017-08-12T07:24:00.488Z,83.40
2017-08-12T07:26:27.929Z,83.40
2017-08-12T07:28:55.385Z,83.50
2017-08-12T07:31:23.605Z,83.50
2017-08-12T07:33:51.060Z,83.50
2017-08-12T07:36:18.516Z,83.40
2017-08-12T07:38:45.967Z,83.50
2017-08-12T07:41:13.424Z,83.40
2017-08-12T07:43:40.880Z,83.50
2017-08-12T07:46:09.113Z,83.10
2017-08-12T07:48:36.565Z,83.10
2017-08-12T07:51:04.025Z,83.00
2017-08-12T07:53:31.473Z,83.00
2017-08-12T07:55:58.936Z,83.10
2017-08-12T07:58:26.381Z,82.90
2017-08-12T08:00:54.593Z,82.90
2017-08-12T08:03:22.049Z,82.90
2017-08-12T08:05:49.504Z,82.70
2017-08-12T08:08:16.964Z,82.90
2017-08-12T08:10:44.413Z,83.20
2017-08-12T08:13:11.925Z,83.20
2017-08-12T08:15:39.381Z,83.30
2017-08-12T08:18:06.844Z,83.50
2017-08-12T08:20:34.280Z,83.50
2017-08-12T08:23:01.733Z,83.70
2017-08-12T08:25:29.176Z,83.80
2017-08-12T08:27:57.405Z,84.00
2017-08-12T08:30:24.853Z,84.00
2017-08-12T08:32:52.313Z,84.00
2017-08-12T08:35:19.768Z,84.00
2017-08-12T08:37:47.222Z,83.90
2017-08-12T08:40:14.681Z,84.00
2017-08-12T08:42:42.136Z,84.00
2017-08-12T08:45:10.369Z,84.10
2017-08-12T08:47:37.824Z,84.10
2017-08-12T08:50:05.397Z,84.10
2017-08-12T08:52:32.845Z,84.10
2017-08-12T08:55:00.768Z,84.30
2017-08-12T08:57:28.985Z,84.70
2017-08-12T08:59:56.443Z,84.70
2017-08-12T09:02:23.901Z,84.50
2017-08-12T09:04:51.361Z,85.00
2017-08-12T09:07:18.819Z,85.20
2017-08-12T09:09:46.276Z,85.10
2017-08-12T09:12:14.712Z,85.40
2017-08-12T09:14:42.164Z,85.40
2017-08-12T09:17:09.639Z,85.20
2017-08-12T09:19:37.082Z,85.10
2017-08-12T09:22:04.538Z,85.30
2017-08-12T09:24:32.004Z,85.20
2017-08-12T09:26:59.434Z,85.50
2017-08-12T09:29:27.453Z,85.50
2017-08-12T09:31:54.912Z,85.40
2017-08-12T09:34:22.363Z,85.60
2017-08-12T09:36:49.806Z,86.40
2017-08-12T09:39:17.261Z,85.70
2017-08-12T09:41:45.470Z,85.60
2017-08-12T09:44:12.929Z,85.50
2017-08-12T09:46:40.401Z,85.60
2017-08-12T09:49:07.857Z,85.70
2017-08-12T09:51:35.670Z,85.80
2017-08-12T09:54:03.207Z,85.80
2017-08-12T09:56:30.658Z,85.80
2017-08-12T09:58:58.121Z,86.00
2017-08-12T10:01:25.576Z,86.00
2017-08-12T10:03:53.036Z,85.90
2017-08-12T10:06:20.501Z,85.80
2017-08-12T10:08:47.957Z,85.90
2017-08-12T10:11:15.404Z,85.80
2017-08-12T10:13:42.877Z,85.80
2017-08-12T10:16:10.385Z,85.90
2017-08-12T10:18:38.185Z,85.80
2017-08-12T10:21:06.408Z,85.80
2017-08-12T10:23:33.856Z,85.80
2017-08-12T10:26:01.311Z,85.90
2017-08-12T10:28:28.768Z,85.90
2017-08-12T10:30:57.017Z,85.90
2017-08-12T10:33:24.472Z,85.80
2017-08-12T10:35:51.932Z,86.20
2017-08-12T10:38:19.389Z,85.90
2017-08-12T10:40:46.920Z,85.80
2017-08-12T10:43:14.375Z,86.00
2017-08-12T10:45:41.836Z,85.90
2017-08-12T10:48:09.288Z,86.00
2017-08-12T10:50:37.502Z,85.90
2017-08-12T10:53:04.956Z,85.90
2017-08-12T10:55:32.450Z,86.00
2017-08-12T10:57:59.904Z,86.00
2017-08-12T11:00:27.357Z,85.80
2017-08-12T11:02:55.581Z,85.90
2017-08-12T11:05:23.805Z,86.10
2017-08-12T11:07:51.253Z,85.90
2017-08-12T11:10:18.974Z,85.90
2017-08-12T11:12:46.521Z,85.90
2017-08-12T11:15:13.994Z,85.90
2017-08-12T11:17:41.448Z,85.90
2017-08-12T11:20:08.966Z,85.90
2017-08-12T11:22:37.173Z,85.90
2017-08-12T11:25:04.635Z,85.80
2017-08-12T11:27:32.132Z,85.80
2017-08-12T11:29:59.841Z,85.80
2017-08-12T11:32:27.452Z,85.60
2017-08-12T11:34:54.907Z,85.80
2017-08-12T11:37:22.381Z,85.70
2017-08-12T11:39:49.821Z,85.70
2017-08-12T11:42:17.281Z,85.70
2017-08-12T11:44:47.411Z,85.70
2017-08-12T11:47:14.853Z,85.70
2017-08-12T11:49:42.320Z,85.70
2017-08-12T11:52:09.783Z,85.70
2017-08-12T11:54:37.236Z,85.70
2017-08-12T11:57:05.455Z,85.70
2017-08-12T11:59:32.900Z,85.60
2017-08-12T12:02:00.340Z,85.60
2017-08-12T12:04:28.159Z,85.60
2017-08-12T12:06:55.610Z,85.60
2017-08-12T12:09:23.063Z,85.80
2017-08-12T12:11:50.546Z,85.60
2017-08-12T12:14:21.644Z,85.90
2017-08-12T12:16:49.866Z,85.80
2017-08-12T12:19:17.322Z,85.70
2017-08-12T12:21:44.776Z,85.60
2017-08-12T12:24:12.242Z,85.60
2017-08-12T12:26:39.697Z,85.70
2017-08-12T12:29:07.181Z,85.80
2017-08-12T12:31:34.632Z,86.00
2017-08-12T12:34:02.099Z,85.70
2017-08-12T12:36:29.568Z,85.70
2017-08-12T12:38:57.044Z,85.80
2017-08-12T12:41:30.470Z,86.00
2017-08-12T12:43:59.313Z,85.80
2017-08-12T12:46:30.405Z,86.00
2017-08-12T12:48:57.856Z,85.90
2017-08-12T12:51:26.457Z,85.90
2017-08-12T12:54:00.218Z,85.90
2017-08-12T12:56:27.792Z,86.50
2017-08-12T12:58:55.244Z,86.80
2017-08-12T13:01:23.473Z,86.60
2017-08-12T13:03:50.919Z,86.50
2017-08-12T13:06:18.380Z,86.50
2017-08-12T13:08:46.087Z,87.30
2017-08-12T13:11:15.454Z,86.40
2017-08-12T13:13:42.920Z,86.90
2017-08-12T13:16:10.373Z,86.70
2017-08-12T13:18:37.859Z,87.20
2017-08-12T13:21:05.790Z,87.20
2017-08-12T13:23:33.244Z,87.20
2017-08-12T13:26:01.473Z,87.20
2017-08-12T13:28:28.929Z,87.20
2017-08-12T13:30:56.404Z,87.70
2017-08-12T13:33:23.856Z,87.40
2017-08-12T13:35:51.318Z,87.40
2017-08-12T13:38:18.768Z,87.50
2017-08-12T13:40:46.473Z,87.50
2017-08-12T13:43:13.925Z,87.60
2017-08-12T13:45:41.372Z,87.80
2017-08-12T13:48:08.829Z,87.80
2017-08-12T13:50:36.285Z,87.70
2017-08-12T13:53:03.753Z,87.60
2017-08-12T13:55:31.214Z,87.70
2017-08-12T13:57:58.678Z,87.70
2017-08-12T14:00:26.136Z,87.70
2017-08-12T14:02:53.844Z,87.70
2017-08-12T14:05:21.331Z,87.80
2017-08-12T14:07:49.621Z,88.10
2017-08-12T14:10:17.833Z,87.80
2017-08-12T14:12:45.281Z,87.80
2017-08-12T14:15:13.501Z,87.90
2017-08-12T14:17:40.964Z,87.90
2017-08-12T14:20:08.416Z,87.90
2017-08-12T14:22:35.877Z,87.90
2017-08-12T14:25:03.337Z,87.80
2017-08-12T14:27:30.804Z,87.90
2017-08-12T14:29:58.248Z,87.90
2017-08-12T14:32:25.844Z,88.10
2017-08-12T14:34:54.119Z,88.00
2017-08-12T14:37:21.578Z,87.90
2017-08-12T14:39:49.036Z,87.90
2017-08-12T14:42:16.549Z,87.90
2017-08-12T14:44:46.953Z,87.90
2017-08-12T14:47:14.412Z,87.90
2017-08-12T14:49:41.866Z,88.00
2017-08-12T14:52:09.316Z,88.90
2017-08-12T14:54:36.781Z,88.10
2017-08-12T14:57:04.257Z,88.00
2017-08-12T14:59:31.724Z,88.00
2017-08-12T15:01:59.190Z,88.00
2017-08-12T15:04:26.640Z,88.10
2017-08-12T15:06:54.096Z,87.90
2017-08-12T15:09:21.572Z,88.10
2017-08-12T15:11:49.071Z,87.80
2017-08-12T15:14:16.525Z,88.00
2017-08-12T15:16:43.989Z,88.10
2017-08-12T15:19:11.443Z,88.00
2017-08-12T15:21:38.902Z,87.90
2017-08-12T15:24:06.349Z,88.20
2017-08-12T15:26:33.805Z,88.20
2017-08-12T15:29:01.245Z,88.20
2017-08-12T15:31:28.717Z,88.20
2017-08-12T15:33:56.181Z,88.10
2017-08-12T15:36:23.636Z,88.20
2017-08-12T15:38:53.450Z,88.20
2017-08-12T15:41:21.964Z,88.10
2017-08-12T15:43:49.457Z,88.20
2017-08-12T15:46:19.280Z,88.20
2017-08-12T15:48:50.674Z,88.90
2017-08-12T15:51:18.118Z,88.10
2017-08-12T15:53:50.387Z,88.20
2017-08-12T15:56:18.718Z,88.30
2017-08-12T15:58:46.176Z,88.30
2017-08-12T16:01:13.657Z,88.30
2017-08-12T16:03:41.105Z,88.30
2017-08-12T16:06:09.286Z,88.30
2017-08-12T16:08:43.558Z,88.30
2017-08-12T16:11:11.008Z,88.30
2017-08-12T16:13:39.218Z,88.30
2017-08-12T16:16:06.677Z,88.30
2017-08-12T16:18:34.135Z,88.50
2017-08-12T16:21:01.605Z,88.50
2017-08-12T16:23:33.247Z,88.50
2017-08-12T16:26:00.748Z,88.50
2017-08-12T16:28:28.209Z,88.50
2017-08-12T16:30:55.669Z,88.50
2017-08-12T16:33:23.119Z,88.50
2017-08-12T16:35:50.581Z,88.50
2017-08-12T16:38:18.056Z,88.50
2017-08-12T16:40:45.509Z,88.50
2017-08-12T16:43:12.975Z,88.50
2017-08-12T16:45:40.441Z,88.50
2017-08-12T16:48:07.897Z,88.50
2017-08-12T16:50:35.397Z,88.50
2017-08-12T16:53:02.857Z,88.50
2017-08-12T16:55:30.312Z,88.50
2017-08-12T16:57:57.880Z,88.50
2017-08-12T17:00:25.710Z,88.50
2017-08-12T17:02:53.163Z,88.50
2017-08-12T17:05:20.621Z,88.50
2017-08-12T17:07:48.848Z,88.50
2017-08-12T17:10:16.308Z,88.50
2017-08-12T17:12:43.764Z,88.50
2017-08-12T17:15:11.228Z,88.50
2017-08-12T17:17:38.706Z,88.40
2017-08-12T17:20:06.165Z,88.40
2017-08-12T17:22:33.637Z,88.40
2017-08-12T17:25:01.092Z,88.30
2017-08-12T17:27:28.549Z,88.30
2017-08-12T17:29:56.000Z,88.30
2017-08-12T17:32:23.469Z,88.30
2017-08-12T17:34:50.997Z,88.30
2017-08-12T17:37:19.227Z,88.10
2017-08-12T17:39:46.688Z,88.10
2017-08-12T17:42:14.140Z,88.10
2017-08-12T17:44:41.610Z,88.00
2017-08-12T17:47:09.337Z,88.10
2017-08-12T17:49:36.797Z,88.10
2017-08-12T17:52:06.400Z,88.20
2017-08-12T17:54:34.608Z,88.10
2017-08-12T17:57:02.056Z,88.10
2017-08-12T17:59:29.511Z,88.10
2017-08-12T18:01:57.041Z,88.10
2017-08-12T18:04:24.500Z,88.10
2017-08-12T18:06:51.952Z,88.10
2017-08-12T18:09:19.439Z,88.00
2017-08-12T18:11:46.868Z,88.00
2017-08-12T18:14:14.337Z,88.00
2017-08-12T18:16:41.776Z,87.90
2017-08-12T18:19:09.229Z,87.90
2017-08-12T18:21:36.685Z,87.90
2017-08-12T18:24:04.140Z,87.90
2017-08-12T18:26:32.356Z,88.00
2017-08-12T18:28:59.819Z,88.00
2017-08-12T18:31:27.269Z,87.90
2017-08-12T18:33:54.736Z,87.90
2017-08-12T18:36:23.196Z,88.00
2017-08-12T18:38:50.657Z,88.00
2017-08-12T18:41:18.124Z,88.00
2017-08-12T18:43:45.576Z,88.00
2017-08-12T18:46:14.460Z,88.10
2017-08-12T18:48:41.930Z,88.00
2017-08-12T18:51:09.477Z,88.10
2017-08-12T18:53:37.717Z,88.10
2017-08-12T18:56:05.614Z,88.10
2017-08-12T18:58:33.352Z,88.10
2017-08-12T19:01:00.805Z,88.20
2017-08-12T19:03:28.247Z,88.20
2017-08-12T19:05:56.465Z,88.20
2017-08-12T19:08:24.034Z,88.20
2017-08-12T19:10:51.536Z,88.20
2017-08-12T19:13:18.988Z,88.20
2017-08-12T19:15:46.433Z,88.30
2017-08-12T19:18:13.889Z,88.30
2017-08-12T19:20:41.352Z,88.30
2017-08-12T19:23:08.884Z,88.20
2017-08-12T19:25:36.334Z,88.20
2017-08-12T19:28:04.561Z,88.40
2017-08-12T19:30:32.781Z,88.40
2017-08-12T19:33:00.237Z,88.40
2017-08-12T19:35:27.693Z,88.40
2017-08-12T19:37:55.153Z,88.40
2017-08-12T19:40:23.536Z,88.50
2017-08-12T19:42:51.816Z,88.40
2017-08-12T19:45:19.346Z,89.10
2017-08-12T19:47:46.781Z,88.40
2017-08-12T19:50:15.354Z,88.50
2017-08-12T19:52:43.007Z,88.50
2017-08-12T19:55:10.566Z,88.50
2017-08-12T19:57:38.034Z,88.50
2017-08-12T20:00:05.504Z,88.40
2017-08-12T20:02:32.953Z,88.50
2017-08-12T20:05:00.400Z,88.50
2017-08-12T20:07:27.861Z,88.60
2017-08-12T20:09:55.317Z,88.50
2017-08-12T20:12:22.767Z,88.50
2017-08-12T20:14:50.224Z,88.50
2017-08-12T20:17:17.671Z,88.60
2017-08-12T20:19:45.127Z,88.60
2017-08-12T20:22:12.618Z,88.60
2017-08-12T20:24:40.063Z,88.60
2017-08-12T20:27:07.541Z,88.60
2017-08-12T20:29:35.002Z,88.60
2017-08-12T20:32:02.450Z,88.60
2017-08-12T20:34:29.914Z,88.60
2017-08-12T20:36:57.354Z,88.60
2017-08-12T20:39:25.579Z,88.70
2017-08-12T20:41:53.034Z,88.60
2017-08-12T20:44:20.501Z,89.40
2017-08-12T20:46:47.956Z,88.70
2017-08-12T20:49:15.409Z,88.70
2017-08-12T20:51:42.867Z,88.70
2017-08-12T20:54:10.320Z,88.70
2017-08-12T20:56:38.581Z,88.70
2017-08-12T20:59:06.033Z,88.70
2017-08-12T21:01:33.489Z,88.70
2017-08-12T21:04:00.945Z,88.80
2017-08-12T21:06:28.400Z,89.50
2017-08-12T21:08:55.852Z,88.70
2017-08-12T21:11:23.347Z,88.70
2017-08-12T21:13:50.799Z,88.70
2017-08-12T21:16:18.270Z,88.70
2017-08-12T21:18:45.746Z,88.70
2017-08-12T21:21:13.237Z,88.70
2017-08-12T21:23:41.482Z,88.70
2017-08-12T21:26:08.996Z,88.70
2017-08-12T21:28:36.478Z,88.70
2017-08-12T21:31:03.963Z,89.40
2017-08-12T21:33:31.425Z,88.80
2017-08-12T21:35:58.876Z,88.90
2017-08-12T21:38:26.350Z,88.90
2017-08-12T21:40:54.808Z,88.80
2017-08-12T21:43:22.909Z,88.80
2017-08-12T21:45:50.374Z,88.80
2017-08-12T21:48:17.829Z,88.80
2017-08-12T21:50:45.293Z,88.90
2017-08-12T21:53:12.854Z,88.90
2017-08-12T21:55:40.301Z,89.00
2017-08-12T21:58:07.775Z,88.90
2017-08-12T22:00:36.644Z,89.00
2017-08-12T22:03:04.125Z,89.00
2017-08-12T22:05:31.649Z,89.00
2017-08-12T22:07:59.922Z,89.00
2017-08-12T22:10:27.390Z,88.90
2017-08-12T22:12:54.910Z,89.00
2017-08-12T22:15:22.670Z,89.00
2017-08-12T22:17:50.128Z,89.10
2017-08-12T22:20:17.596Z,89.10
2017-08-12T22:22:45.166Z,89.10
2017-08-12T22:25:12.620Z,89.00
2017-08-12T22:27:40.103Z,89.00
2017-08-12T22:30:08.538Z,88.90
2017-08-12T22:32:38.010Z,89.00
2017-08-12T22:35:05.484Z,89.00
2017-08-12T22:37:32.958Z,89.00
2017-08-12T22:40:00.518Z,89.10
2017-08-12T22:42:28.769Z,89.20
2017-08-12T22:44:57.223Z,89.10
2017-08-12T22:47:24.703Z,89.10
2017-08-12T22:49:52.242Z,89.20
2017-08-12T22:52:19.835Z,89.20
2017-08-12T22:54:49.226Z,89.20
2017-08-12T22:57:17.086Z,89.20
2017-08-12T22:59:44.573Z,89.20
2017-08-12T23:02:12.088Z,89.20
2017-08-12T23:04:39.566Z,89.10
2017-08-12T23:07:07.834Z,89.90
2017-08-12T23:09:35.302Z,89.10
2017-08-12T23:12:03.569Z,88.80
2017-08-12T23:14:31.423Z,89.20
2017-08-12T23:16:58.864Z,89.10
2017-08-12T23:19:27.158Z,89.10
2017-08-12T23:21:54.628Z,89.00
2017-08-12T23:24:23.031Z,89.00
2017-08-12T23:26:51.082Z,89.00
2017-08-12T23:29:19.905Z,89.10
2017-08-12T23:31:47.373Z,89.00
2017-08-12T23:34:15.703Z,89.70
2017-08-12T23:36:43.164Z,89.00
2017-08-12T23:39:11.359Z,89.00
2017-08-12T23:41:38.853Z,88.90
2017-08-12T23:44:06.482Z,88.90
2017-08-12T23:46:33.994Z,89.00
2017-08-12T23:49:02.234Z,89.50
2017-08-12T23:51:29.748Z,89.10
2017-08-12T23:53:58.893Z,89.10
2017-08-12T23:56:26.358Z,89.00
2017-08-12T23:58:53.841Z,89.00
